Time;durP1;ratioP1;P1;durP2;ratioP2;P2;SDS_P1;SDS_P2;PMS_P1;PMS_P2;Temp;Humidity;BMP_temperature;BMP_pressure;BME280_temperature;BME280_humidity;BME280_pressure;Samples;Min_cycle;Max_cycle;Signal;HPM_P1;HPM_P2
2021/11/24 00:00:39;;;;;;;;;27.75;24.25;;;;;5.88;69.84;101842.66;5059158;28;66578;-61
2021/11/24 00:03:05;;;;;;;;;29.25;23.00;;;;;5.88;69.92;101842.66;5077197;28;66790;-61
2021/11/24 00:05:30;;;;;;;;;32.00;28.00;;;;;5.86;69.79;101839.28;5077873;28;45419;-62
2021/11/24 00:07:55;;;;;;;;;31.00;27.25;;;;;5.83;69.93;101834.22;5077500;28;56412;-61
2021/11/24 00:10:21;;;;;;;;;33.00;27.50;;;;;5.81;70.19;101836.91;5077762;28;46543;-61
2021/11/24 00:12:47;;;;;;;;;27.00;25.75;;;;;5.78;69.94;101826.59;5059555;28;50571;-61
2021/11/24 00:15:12;;;;;;;;;25.00;21.25;;;;;5.76;70.01;101824.09;5077900;28;45784;-62
2021/11/24 00:17:38;;;;;;;;;22.75;20.50;;;;;5.74;70.02;101820.72;5077974;28;45368;-61
2021/11/24 00:20:04;;;;;;;;;26.00;20.25;;;;;5.72;70.28;101816.47;5077914;28;45390;-61
2021/11/24 00:22:30;;;;;;;;;30.25;23.25;;;;;5.71;70.30;101820.00;5077439;28;45445;-61
2021/11/24 00:24:55;;;;;;;;;25.50;22.25;;;;;5.70;70.41;101819.16;5076788;28;45249;-61
2021/11/24 00:27:20;;;;;;;;;25.00;20.75;;;;;5.70;70.54;101820.91;5076802;28;64410;-61
2021/11/24 00:29:48;;;;;;;;;24.25;22.50;;;;;5.70;70.61;101819.16;5076731;28;61253;-61
2021/11/24 00:32:14;;;;;;;;;27.25;22.25;;;;;5.69;70.44;101817.47;5077440;28;45582;-61
2021/11/24 00:34:39;;;;;;;;;29.25;24.25;;;;;5.69;70.47;101819.22;5076973;28;60746;-61
2021/11/24 00:37:05;;;;;;;;;27.25;23.25;;;;;5.66;70.45;101822.81;5076727;28;65530;-61
2021/11/24 00:39:30;;;;;;;;;26.25;22.00;;;;;5.63;70.02;101815.16;5076661;28;65726;-61
2021/11/24 00:41:55;;;;;;;;;29.25;26.00;;;;;5.59;70.41;101818.81;5076261;28;70864;-61
2021/11/24 00:44:21;;;;;;;;;22.00;21.00;;;;;5.55;70.52;101814.66;5076666;28;69442;-61
2021/11/24 00:46:46;;;;;;;;;30.00;23.50;;;;;5.50;70.41;101812.28;5076730;28;64754;-61
2021/11/24 00:49:11;;;;;;;;;26.75;21.25;;;;;5.49;70.69;101811.41;5076888;28;45466;-61
2021/11/24 00:51:37;;;;;;;;;25.25;23.75;;;;;5.46;70.62;101815.94;5076672;28;56781;-61
2021/11/24 00:54:02;;;;;;;;;28.50;24.00;;;;;5.43;70.66;101816.91;5058347;28;65200;-61
2021/11/24 00:56:28;;;;;;;;;25.25;20.75;;;;;5.41;70.79;101818.75;5059114;28;45353;-61
2021/11/24 00:58:53;;;;;;;;;28.25;23.00;;;;;5.39;70.89;101812.75;5077420;28;45360;-61
2021/11/24 01:01:19;;;;;;;;;28.00;21.50;;;;;5.39;71.06;101814.53;5058075;28;71381;-61
2021/11/24 01:03:44;;;;;;;;;30.75;22.50;;;;;5.37;71.07;101801.56;5076122;28;68902;-62
2021/11/24 01:06:09;;;;;;;;;31.25;22.00;;;;;5.34;71.05;101801.69;5076442;28;61326;-61
2021/11/24 01:08:35;;;;;;;;;27.25;23.00;;;;;5.33;70.99;101798.25;5076396;28;62800;-61
2021/11/24 01:11:00;;;;;;;;;26.00;22.25;;;;;5.32;71.07;101798.31;5057922;28;67224;-61
2021/11/24 01:13:26;;;;;;;;;33.00;24.50;;;;;5.30;71.11;101795.78;5076837;28;45279;-62
2021/11/24 01:15:51;;;;;;;;;28.25;21.50;;;;;5.30;71.38;101787.13;5077117;28;45486;-61
2021/11/24 01:18:17;;;;;;;;;33.00;25.75;;;;;5.30;71.21;101789.75;5076393;28;59600;-61
2021/11/24 01:20:42;;;;;;;;;16.50;10.25;;;;;5.31;71.00;101794.00;5058220;28;45958;-61
2021/11/24 01:23:08;;;;;;;;;28.75;24.25;;;;;5.27;71.25;101785.50;5076763;28;45269;-61
2021/11/24 01:25:33;;;;;;;;;25.00;20.00;;;;;5.24;71.27;101784.81;5058626;28;45207;-61
2021/11/24 01:27:59;;;;;;;;;29.75;23.00;;;;;5.22;71.22;101784.03;5076006;28;65257;-62
2021/11/24 01:30:24;;;;;;;;;20.00;19.00;;;;;5.19;71.11;101783.25;5076734;28;45360;-61
2021/11/24 01:32:50;;;;;;;;;28.75;21.25;;;;;5.17;71.15;101777.28;5076606;28;46104;-61
2021/11/24 01:35:15;;;;;;;;;30.50;25.00;;;;;5.16;71.28;101772.97;5076847;28;45797;-61
2021/11/24 01:37:41;;;;;;;;;27.25;21.00;;;;;5.16;71.17;101777.31;5058404;27;45334;-61
2021/11/24 01:40:07;;;;;;;;;29.25;24.25;;;;;5.16;71.41;101777.31;5076254;28;46652;-61
2021/11/24 01:42:33;;;;;;;;;23.50;21.00;;;;;5.14;71.23;101766.13;5076243;28;45588;-61
2021/11/24 01:44:59;;;;;;;;;23.00;19.50;;;;;5.11;71.49;101764.53;5058635;28;45363;-61
2021/11/24 01:47:24;;;;;;;;;21.50;20.00;;;;;5.11;71.52;101769.72;5057626;28;68960;-61
2021/11/24 01:49:49;;;;;;;;;31.50;21.25;;;;;5.11;71.40;101763.66;5075972;28;55539;-61
2021/11/24 01:52:15;;;;;;;;;24.00;21.50;;;;;5.10;71.66;101765.44;5058179;28;45360;-62
2021/11/24 01:54:40;;;;;;;;;29.75;23.00;;;;;5.10;71.85;101762.84;5058321;28;45483;-61
2021/11/24 01:57:06;;;;;;;;;34.25;21.00;;;;;5.11;71.84;101764.53;5076481;28;45513;-61
2021/11/24 01:59:31;;;;;;;;;29.00;25.75;;;;;5.12;71.71;101754.94;5076223;28;46191;-61
2021/11/24 02:01:57;;;;;;;;;34.25;29.75;;;;;5.11;71.70;101748.88;5058335;28;45495;-61
2021/11/24 02:04:23;;;;;;;;;29.75;21.50;;;;;5.12;71.87;101753.19;5076577;28;45366;-61
2021/11/24 02:06:49;;;;;;;;;33.25;26.50;;;;;5.11;71.93;101750.63;5076216;28;45359;-61
2021/11/24 02:09:15;;;;;;;;;28.00;23.75;;;;;5.10;72.17;101752.41;5076145;28;46597;-61
2021/11/24 02:11:43;;;;;;;;;31.00;28.00;;;;;5.10;72.16;101741.13;5057009;28;66804;-61
2021/11/24 02:14:09;;;;;;;;;48.00;36.75;;;;;5.12;71.81;101742.75;5058191;28;45344;-61
2021/11/24 02:17:04;;;;;;;;;50.50;37.00;;;;;5.12;71.99;101741.91;5076431;28;45335;-61
2021/11/24 02:19:31;;;;;;;;;38.50;30.50;;;;;5.12;71.76;101739.31;5049020;28;48136;-61
2021/11/24 02:21:56;;;;;;;;;28.75;24.75;;;;;5.12;71.96;101745.38;5058078;28;45264;-61
2021/11/24 02:24:27;;;;;;;;;32.75;27.00;;;;;5.12;71.86;101739.31;5057900;28;45395;-61
2021/11/24 02:26:52;;;;;;;;;35.25;24.50;;;;;5.12;71.70;101739.31;5076062;28;45342;-61
2021/11/24 02:29:18;;;;;;;;;29.00;24.75;;;;;5.12;71.77;101736.69;5075167;28;67449;-61
2021/11/24 02:31:47;;;;;;;;;31.00;26.25;;;;;5.10;71.96;101739.38;5076447;28;66580;-61
2021/11/24 02:34:13;;;;;;;;;32.75;24.75;;;;;5.11;71.58;101733.25;5079831;28;45275;-61
2021/11/24 02:36:38;;;;;;;;;28.00;21.00;;;;;5.11;71.93;101727.19;5078926;28;58892;-61
2021/11/24 02:39:03;;;;;;;;;41.75;30.00;;;;;5.10;71.79;101715.94;5079484;27;45275;-60
2021/11/24 02:41:29;;;;;;;;;29.00;24.25;;;;;5.09;71.61;101724.66;5057705;28;45290;-61
2021/11/24 02:43:55;;;;;;;;;40.25;31.75;;;;;5.09;71.76;101721.19;5059428;28;45435;-61
2021/11/24 02:46:20;;;;;;;;;37.50;27.50;;;;;5.07;71.80;101716.06;5057824;28;45435;-61
2021/11/24 02:48:45;;;;;;;;;34.50;29.25;;;;;5.08;71.89;101707.34;5040011;28;67853;-61
2021/11/24 02:51:11;;;;;;;;;37.25;28.25;;;;;5.07;71.81;101716.06;5058334;28;61159;-61
2021/11/24 02:53:36;;;;;;;;;38.50;28.25;;;;;5.07;71.73;101708.25;5058163;28;67633;-61
2021/11/24 02:56:02;;;;;;;;;40.50;29.25;;;;;5.06;71.50;101706.56;5059031;28;45463;-61
2021/11/24 02:58:27;;;;;;;;;27.00;24.75;;;;;5.05;71.72;101705.72;5058785;28;45957;-61
2021/11/24 03:00:54;;;;;;;;;37.25;30.00;;;;;5.05;71.63;101702.28;5058891;28;45288;-61
2021/11/24 03:03:19;;;;;;;;;36.75;27.75;;;;;5.05;71.80;101692.69;5057811;28;45446;-61
2021/11/24 03:05:45;;;;;;;;;33.25;27.00;;;;;5.05;71.94;101695.28;5057879;28;67440;-61
2021/11/24 03:08:10;;;;;;;;;38.25;29.50;;;;;5.06;71.61;101693.53;5057424;28;45596;-61
2021/11/24 03:10:36;;;;;;;;;30.25;25.50;;;;;5.05;71.81;101687.47;5058752;28;45242;-61
2021/11/24 03:13:01;;;;;;;;;36.00;26.50;;;;;5.07;71.89;101677.00;5058815;28;45927;-61
2021/11/24 03:15:27;;;;;;;;;29.25;20.75;;;;;5.06;71.81;101677.91;5057953;28;66627;-61
2021/11/24 03:17:52;;;;;;;;;33.50;26.00;;;;;5.07;71.61;101663.13;5058673;28;45444;-61
2021/11/24 03:20:18;;;;;;;;;31.25;22.75;;;;;5.07;71.82;101670.94;5058631;28;45217;-61
2021/11/24 03:22:43;;;;;;;;;29.75;24.00;;;;;5.08;71.81;101667.41;5058033;28;61562;-61
2021/11/24 03:25:09;;;;;;;;;29.50;24.75;;;;;5.05;71.69;101663.19;5058860;28;45296;-61
2021/11/24 03:27:36;;;;;;;;;32.00;24.50;;;;;5.06;71.91;101651.88;5058488;28;46471;-61
2021/11/24 03:30:04;;;;;;;;;31.00;25.50;;;;;5.05;71.81;101655.38;5057342;28;45507;-61
2021/11/24 03:32:30;;;;;;;;;34.25;27.50;;;;;5.06;71.78;101659.69;5058547;28;45379;-61
2021/11/24 03:34:55;;;;;;;;;40.25;28.75;;;;;5.05;71.70;101655.38;5057694;28;63968;-61
2021/11/24 03:37:21;;;;;;;;;34.50;26.75;;;;;5.05;71.57;101655.38;5058271;28;46150;-61
2021/11/24 03:39:46;;;;;;;;;27.25;23.25;;;;;5.05;71.36;101652.78;5059741;28;45228;-61
2021/11/24 03:42:12;;;;;;;;;39.25;25.75;;;;;5.04;71.38;101648.50;5077145;28;45450;-61
2021/11/24 03:44:37;;;;;;;;;37.75;28.00;;;;;5.03;71.27;101649.41;5077419;28;45381;-61
2021/11/24 03:47:03;;;;;;;;;28.50;21.00;;;;;5.01;71.64;101648.63;5076522;28;67028;-61
2021/11/24 03:49:28;;;;;;;;;28.25;20.25;;;;;5.00;71.31;101650.41;5077404;28;45355;-61
2021/11/24 03:51:54;;;;;;;;;30.75;27.75;;;;;5.01;71.45;101651.22;5058137;28;68669;-61
2021/11/24 03:54:19;;;;;;;;;23.75;21.25;;;;;5.00;71.51;101646.94;5076586;28;63349;-61
2021/11/24 03:56:45;;;;;;;;;30.25;25.75;;;;;4.99;71.50;101634.84;5058307;28;67253;-62
2021/11/24 03:59:10;;;;;;;;;31.25;26.00;;;;;4.98;71.27;101643.56;5077155;28;45320;-61
2021/11/24 04:01:35;;;;;;;;;24.50;20.50;;;;;4.96;71.31;101641.03;5076389;28;61919;-61
2021/11/24 04:04:01;;;;;;;;;26.00;22.50;;;;;4.94;71.33;101635.06;5076348;28;60766;-61
2021/11/24 04:06:27;;;;;;;;;28.75;22.50;;;;;4.92;71.22;101628.22;5076038;28;70540;-61
2021/11/24 04:08:53;;;;;;;;;32.25;26.00;;;;;4.90;71.35;101630.91;5076899;28;45884;-61
2021/11/24 04:11:18;;;;;;;;;33.25;23.00;;;;;4.87;71.32;101631.88;5076482;28;53163;-61
2021/11/24 04:13:43;;;;;;;;;30.25;22.00;;;;;4.85;71.34;101631.09;5076228;28;63484;-61
2021/11/24 04:16:09;;;;;;;;;28.75;26.00;;;;;4.83;71.43;101627.72;5075835;28;70769;-61
2021/11/24 04:18:34;;;;;;;;;28.00;21.50;;;;;4.83;71.14;101632.94;5074583;28;45372;-61
2021/11/24 04:21:00;;;;;;;;;31.50;23.50;;;;;4.82;71.40;101626.03;5075979;28;61266;-61
2021/11/24 04:23:25;;;;;;;;;26.50;21.00;;;;;4.81;71.37;101623.53;5057705;28;66816;-61
2021/11/24 04:25:51;;;;;;;;;31.25;21.50;;;;;4.79;71.13;101617.53;5076453;28;45471;-61
2021/11/24 04:28:16;;;;;;;;;27.25;19.00;;;;;4.79;70.95;101626.19;5075789;28;45380;-61
2021/11/24 04:30:41;;;;;;;;;23.50;20.00;;;;;4.78;71.05;101618.47;5075711;28;65430;-61
2021/11/24 04:33:07;;;;;;;;;22.50;20.00;;;;;4.75;70.92;101615.09;5076498;28;45366;-61
2021/11/24 04:35:32;;;;;;;;;25.25;19.25;;;;;4.74;71.28;101612.56;5075317;28;70683;-61
2021/11/24 04:37:58;;;;;;;;;22.75;18.75;;;;;4.71;70.88;101605.72;5075686;27;63028;-62
2021/11/24 04:40:23;;;;;;;;;28.75;19.25;;;;;4.67;70.96;101608.56;5033506;28;1203820;-61
2021/11/24 04:42:49;;;;;;;;;22.50;19.75;;;;;4.64;71.11;101603.50;5077700;28;45395;-61
2021/11/24 04:45:15;;;;;;;;;24.25;19.75;;;;;4.59;71.22;101599.34;5077500;28;45478;-61
2021/11/24 04:47:40;;;;;;;;;28.25;22.00;;;;;4.57;71.22;101600.31;5059311;28;45503;-61
2021/11/24 04:50:06;;;;;;;;;19.25;17.50;;;;;4.55;71.39;101605.59;5077594;28;45245;-61
2021/11/24 04:52:32;;;;;;;;;30.75;21.75;;;;;4.53;71.48;101602.22;5077521;28;45478;-61
2021/11/24 04:54:57;;;;;;;;;20.75;17.75;;;;;4.49;71.08;101600.66;5076385;28;45326;-61
2021/11/24 04:57:22;;;;;;;;;24.00;18.75;;;;;4.47;71.32;101606.88;5076489;28;65050;-61
2021/11/24 04:59:48;;;;;;;;;26.50;19.25;;;;;4.43;71.50;101609.59;5077553;28;45311;-61
2021/11/24 05:02:13;;;;;;;;;26.00;21.50;;;;;4.41;71.44;101602.78;5077351;28;45482;-61
2021/11/24 05:04:38;;;;;;;;;23.75;18.00;;;;;4.38;71.52;101597.69;5076427;28;69624;-60
2021/11/24 05:07:04;;;;;;;;;29.00;20.25;;;;;4.37;71.63;101611.63;5077045;28;45217;-61
2021/11/24 05:09:29;;;;;;;;;24.25;19.25;;;;;4.37;71.56;101593.41;5077349;28;45341;-61
2021/11/24 05:11:55;;;;;;;;;27.25;22.25;;;;;4.36;71.33;101589.97;5076492;28;63855;-62
2021/11/24 05:14:26;;;;;;;;;31.25;23.00;;;;;4.36;71.50;101589.13;5077129;28;45561;-61
2021/11/24 05:16:51;;;;;;;;;36.50;21.25;;;;;4.35;71.33;101593.50;5077002;28;45860;-61
2021/11/24 05:19:19;;;;;;;;;24.25;23.00;;;;;4.34;71.57;101591.81;5059213;28;45367;-61
2021/11/24 05:21:50;;;;;;;;;29.00;20.50;;;;;4.33;71.64;101597.91;5077238;28;45394;-61
2021/11/24 05:24:15;;;;;;;;;31.50;24.75;;;;;4.29;71.25;101597.19;5075963;28;45598;-61
2021/11/24 05:26:42;;;;;;;;;24.25;18.25;;;;;4.26;71.41;101591.31;5041812;28;45405;-61
2021/11/24 05:29:07;;;;;;;;;31.00;24.75;;;;;4.28;71.76;101592.09;5076959;28;45343;-61
2021/11/24 05:31:32;;;;;;;;;27.00;22.75;;;;;4.25;71.54;101585.25;5076145;28;61973;-61
2021/11/24 05:34:00;;;;;;;;;29.50;26.25;;;;;4.27;71.33;101588.63;5075749;28;68343;-61
2021/11/24 05:36:25;;;;;;;;;32.75;24.75;;;;;4.24;71.26;101582.72;5076904;28;45228;-61
2021/11/24 05:38:51;;;;;;;;;38.00;27.50;;;;;4.20;71.45;101582.03;5076967;28;45478;-61
2021/11/24 05:41:16;;;;;;;;;32.00;24.00;;;;;4.20;71.24;101575.97;5076709;28;45485;-61
2021/11/24 05:43:42;;;;;;;;;32.00;27.00;;;;;4.19;71.32;101582.94;5076533;28;45395;-61
2021/11/24 05:46:13;;;;;;;;;28.50;22.00;;;;;4.16;71.16;101575.28;5076585;28;45379;-61
2021/11/24 05:48:38;;;;;;;;;25.50;18.75;;;;;4.14;71.18;101574.50;5076924;28;45344;-61
2021/11/24 05:51:04;;;;;;;;;33.75;23.25;;;;;4.15;71.35;101565.78;5076734;28;45358;-61
2021/11/24 05:53:29;;;;;;;;;28.00;21.00;;;;;4.14;71.26;101567.53;5076515;28;45748;-61
2021/11/24 05:55:54;;;;;;;;;24.75;20.25;;;;;4.12;71.20;101561.53;5058544;28;45401;-62
2021/11/24 05:58:21;;;;;;;;;17.25;17.25;;;;;4.11;71.39;101559.03;5075725;28;66710;-62
2021/11/24 06:00:46;;;;;;;;;23.75;20.00;;;;;4.11;71.59;101561.63;5058264;28;45550;-61
2021/11/24 06:03:12;;;;;;;;;28.00;22.50;;;;;4.10;71.41;101558.16;5075649;28;64903;-61
2021/11/24 06:05:37;;;;;;;;;26.50;23.50;;;;;4.08;71.45;101557.38;5075618;28;60869;-61
2021/11/24 06:08:03;;;;;;;;;26.75;19.50;;;;;4.10;71.35;101562.53;5058523;28;45285;-61
2021/11/24 06:10:29;;;;;;;;;21.50;18.50;;;;;4.08;71.20;101553.97;5076316;28;45464;-61
2021/11/24 06:12:54;;;;;;;;;23.75;18.50;;;;;4.08;71.32;101557.38;5057641;28;46232;-61
2021/11/24 06:15:19;;;;;;;;;25.00;20.25;;;;;4.08;71.34;101553.97;5057174;28;64926;-61
2021/11/24 06:17:46;;;;;;;;;27.00;18.75;;;;;4.04;71.07;101557.59;5076105;28;45312;-61
2021/11/24 06:20:11;;;;;;;;;26.25;22.00;;;;;4.03;70.85;101548.13;5076133;28;45451;-61
2021/11/24 06:22:37;;;;;;;;;19.75;14.00;;;;;4.02;71.35;101552.47;5076139;28;46339;-60
2021/11/24 06:25:03;;;;;;;;;19.50;14.25;;;;;3.98;71.30;101551.75;5058052;28;45502;-61
2021/11/24 06:27:28;;;;;;;;;20.75;17.50;;;;;3.98;70.89;101556.97;5076274;28;45340;-61
2021/11/24 06:29:54;;;;;;;;;20.25;19.25;;;;;3.95;71.08;101556.28;5075186;28;61696;-61
2021/11/24 06:32:19;;;;;;;;;21.75;18.25;;;;;3.95;71.00;101557.09;5075275;28;57409;-61
2021/11/24 06:34:44;;;;;;;;;21.50;18.75;;;;;3.93;70.86;101551.13;5075110;28;70797;-61
2021/11/24 06:37:10;;;;;;;;;25.75;21.00;;;;;3.92;70.90;101552.03;5075194;28;56369;-61
2021/11/24 06:39:35;;;;;;;;;28.25;15.75;;;;;3.91;70.50;101541.72;5075809;28;45517;-61
2021/11/24 06:42:01;;;;;;;;;26.75;19.25;;;;;3.88;70.75;101542.69;5075742;28;46061;-61
2021/11/24 06:44:26;;;;;;;;;24.25;16.75;;;;;3.86;70.80;101541.91;5075887;28;45351;-61
2021/11/24 06:46:52;;;;;;;;;20.75;16.75;;;;;3.85;71.12;101537.59;5075884;28;45375;-61
2021/11/24 06:49:17;;;;;;;;;30.50;22.75;;;;;3.82;70.83;101538.59;5075766;28;45523;-61
2021/11/24 06:51:43;;;;;;;;;34.50;25.25;;;;;3.81;71.01;101542.13;5040532;28;45319;-61
2021/11/24 06:54:08;;;;;;;;;28.75;20.25;;;;;3.77;70.95;101531.91;5075621;28;45279;-61
2021/11/24 06:56:34;;;;;;;;;28.75;21.00;;;;;3.73;70.94;101539.00;5075777;28;45293;-61
2021/11/24 06:58:59;;;;;;;;;29.50;23.25;;;;;3.70;70.88;101534.78;5075490;28;45577;-61
2021/11/24 07:01:25;;;;;;;;;26.75;16.75;;;;;3.67;70.97;101539.25;5074671;28;64323;-61
2021/11/24 07:03:50;;;;;;;;;31.00;29.00;;;;;3.65;71.02;101526.34;5074726;28;64549;-61
2021/11/24 07:06:16;;;;;;;;;27.50;22.00;;;;;3.63;71.08;101525.56;5074928;28;57618;-61
2021/11/24 07:08:42;;;;;;;;;33.50;21.50;;;;;3.63;71.33;101519.50;5075505;28;45313;-61
2021/11/24 07:11:07;;;;;;;;;25.50;18.50;;;;;3.61;71.26;101529.13;5075216;28;47111;-61
2021/11/24 07:13:32;;;;;;;;;26.00;21.00;;;;;3.58;71.27;101532.72;5074654;28;61630;-61
2021/11/24 07:15:58;;;;;;;;;34.75;27.75;;;;;3.54;71.24;101523.38;5075461;28;45383;-61
2021/11/24 07:18:23;;;;;;;;;32.75;28.75;;;;;3.53;71.61;101527.69;5076785;28;60398;-61
2021/11/24 07:20:48;;;;;;;;;40.25;29.00;;;;;3.53;71.23;101537.25;5078448;28;45395;-62
2021/11/24 07:23:14;;;;;;;;;36.00;24.00;;;;;3.50;71.43;101533.03;5077860;28;64419;-61
2021/11/24 07:25:40;;;;;;;;;37.00;28.50;;;;;3.46;71.78;101531.47;5078745;28;45399;-61
2021/11/24 07:28:05;;;;;;;;;33.25;23.75;;;;;3.46;71.66;101528.88;5078774;28;45399;-61
2021/11/24 07:30:30;;;;;;;;;36.25;28.50;;;;;3.45;71.55;101521.16;5078534;28;46264;-62
2021/11/24 07:32:56;;;;;;;;;34.75;25.50;;;;;3.46;72.00;101525.44;5078385;28;45480;-61
2021/11/24 07:35:21;;;;;;;;;34.50;26.25;;;;;3.45;72.08;101515.97;5060364;28;45438;-62
2021/11/24 07:37:47;;;;;;;;;27.75;23.25;;;;;3.45;71.72;101519.38;5060223;27;45202;-61
2021/11/24 07:40:12;;;;;;;;;33.25;28.25;;;;;3.46;72.04;101512.44;5078164;28;46082;-61
2021/11/24 07:42:38;;;;;;;;;35.50;26.75;;;;;3.46;71.94;101515.03;5078527;28;45909;-60
2021/11/24 07:45:04;;;;;;;;;26.25;23.75;;;;;3.44;72.30;101507.34;5078786;28;45782;-61
2021/11/24 07:47:30;;;;;;;;;31.25;22.75;;;;;3.45;72.23;101510.75;5078492;28;45297;-61
2021/11/24 07:49:56;;;;;;;;;24.75;22.50;;;;;3.46;72.35;101507.25;5078094;28;45426;-61
2021/11/24 07:52:21;;;;;;;;;29.75;22.00;;;;;3.49;72.08;101514.91;5077218;28;45402;-61
2021/11/24 07:54:46;;;;;;;;;24.00;19.00;;;;;3.49;72.11;101505.34;5078179;28;45303;-61
2021/11/24 07:57:13;;;;;;;;;19.75;15.00;;;;;3.52;72.44;101517.38;5078309;28;45328;-61
2021/11/24 07:59:39;;;;;;;;;22.75;21.50;;;;;3.53;72.51;101516.47;5078141;28;46195;-61
2021/11/24 08:02:05;;;;;;;;;30.00;23.25;;;;;3.54;72.56;101515.56;5078045;28;45269;-61
2021/11/24 08:04:30;;;;;;;;;25.50;18.25;;;;;3.55;72.47;101525.88;5078013;28;45275;-61
2021/11/24 08:06:59;;;;;;;;;23.50;18.00;;;;;3.58;72.16;101526.66;5078079;28;45441;-61
2021/11/24 08:09:25;;;;;;;;;21.00;17.25;;;;;3.58;72.21;101514.53;5059618;28;48376;-61
2021/11/24 08:11:50;;;;;;;;;21.75;17.00;;;;;3.59;72.27;101520.56;5077362;28;49101;-62
2021/11/24 08:14:15;;;;;;;;;19.50;16.25;;;;;3.61;72.37;101511.78;5077124;28;62620;-61
2021/11/24 08:16:41;;;;;;;;;24.25;16.75;;;;;3.62;72.29;101513.47;5059064;28;62825;-61
2021/11/24 08:19:07;;;;;;;;;18.50;15.50;;;;;3.63;72.34;101509.13;5076591;28;70719;-61
2021/11/24 08:21:32;;;;;;;;;22.50;17.25;;;;;3.63;72.31;101509.97;5077785;28;45426;-61
2021/11/24 08:23:57;;;;;;;;;18.75;14.75;;;;;3.66;72.48;101511.59;5077302;28;57519;-61
2021/11/24 08:26:23;;;;;;;;;21.25;16.75;;;;;3.67;72.39;101514.13;5077108;28;59220;-61
2021/11/24 08:28:48;;;;;;;;;25.25;20.50;;;;;3.70;72.72;101507.94;5075321;28;68486;-61
2021/11/24 08:31:14;;;;;;;;;24.25;19.25;;;;;3.73;72.41;101505.22;5058834;28;59748;-61
2021/11/24 08:33:39;;;;;;;;;20.50;13.75;;;;;3.76;72.50;101505.06;5058590;28;63322;-61
2021/11/24 08:36:04;;;;;;;;;21.75;17.50;;;;;3.79;72.67;101509.28;5077618;28;45304;-61
2021/11/24 08:38:30;;;;;;;;;23.50;17.75;;;;;3.82;72.66;101496.16;5059429;28;46205;-62
2021/11/24 08:40:56;;;;;;;;;28.00;19.00;;;;;3.85;72.67;101491.66;5077247;28;45278;-61
2021/11/24 08:43:21;;;;;;;;;24.75;18.25;;;;;3.89;72.74;101505.38;5077514;28;46952;-61
2021/11/24 08:45:46;;;;;;;;;25.00;21.50;;;;;3.95;72.59;101505.09;5026024;28;45354;-61
2021/11/24 08:48:12;;;;;;;;;20.50;18.50;;;;;3.97;72.53;101500.66;5076435;28;68143;-61
2021/11/24 08:50:37;;;;;;;;;19.00;17.00;;;;;3.99;72.25;101497.97;5077340;28;45278;-61
2021/11/24 08:53:03;;;;;;;;;23.75;19.25;;;;;4.03;72.40;101503.91;5059342;28;45349;-61
2021/11/24 08:55:28;;;;;;;;;27.75;17.75;;;;;4.08;72.25;101501.94;5076488;28;64954;-61
2021/11/24 08:57:54;;;;;;;;;24.25;19.50;;;;;4.08;72.29;101496.75;5077285;28;46128;-61
2021/11/24 09:00:20;;;;;;;;;27.50;21.50;;;;;4.08;72.08;101489.75;5077293;28;45275;-61
2021/11/24 09:02:50;;;;;;;;;29.75;18.25;;;;;4.08;72.28;101497.56;5059179;28;45838;-61
2021/11/24 09:05:15;;;;;;;;;25.75;21.75;;;;;4.12;72.14;101493.09;5077435;28;45323;-61
2021/11/24 09:07:40;;;;;;;;;23.25;19.00;;;;;4.13;71.93;101492.19;5077187;28;45378;-61
2021/11/24 09:10:06;;;;;;;;;29.25;20.75;;;;;4.15;72.05;101485.97;5058660;28;45613;-61
2021/11/24 09:12:32;;;;;;;;;24.25;20.00;;;;;4.16;71.85;101479.03;5077091;28;45427;-61
2021/11/24 09:14:57;;;;;;;;;22.50;18.00;;;;;4.19;72.00;101473.69;5077095;28;45360;-61
2021/11/24 09:17:23;;;;;;;;;19.25;17.25;;;;;4.19;71.90;101473.69;5076059;28;70947;-61
2021/11/24 09:19:49;;;;;;;;;18.50;15.00;;;;;4.24;72.01;101469.09;5063210;27;45486;-61
2021/11/24 09:22:14;;;;;;;;;21.25;14.50;;;;;4.26;71.85;101469.03;5081532;27;45493;-61
2021/11/24 09:24:40;;;;;;;;;24.00;18.50;;;;;4.29;71.84;101469.72;5075706;27;46855;-61
2021/11/24 09:27:16;;;;;;;;;23.00;19.00;;;;;4.33;71.75;101470.44;5075335;27;46454;-61
2021/11/24 09:29:42;;;;;;;;;24.75;20.50;;;;;4.37;72.09;101463.31;5077367;27;45411;-61
2021/11/24 09:32:07;;;;;;;;;22.75;17.25;;;;;4.42;71.68;101463.94;5082247;27;45493;-61
2021/11/24 09:34:33;;;;;;;;;22.75;16.50;;;;;4.47;71.85;101466.34;5074698;27;65604;-61
2021/11/24 09:36:58;;;;;;;;;22.75;18.50;;;;;4.52;71.61;101465.19;5075171;27;45418;-61
2021/11/24 09:39:24;;;;;;;;;25.25;17.25;;;;;4.55;71.66;101464.19;5086333;27;62720;-61
2021/11/24 09:41:49;;;;;;;;;39.00;29.75;;;;;4.59;71.62;101453.56;5047809;28;54356;-61
2021/11/24 09:44:15;;;;;;;;;24.25;19.50;;;;;4.66;71.62;101448.91;5055191;28;45467;-61
2021/11/24 09:46:47;;;;;;;;;23.00;17.50;;;;;4.73;71.90;101445.06;5055251;28;45382;-61
2021/11/24 09:49:12;;;;;;;;;25.25;19.00;;;;;4.82;71.53;101442.94;5054607;28;45548;-61
2021/11/24 09:51:38;;;;;;;;;22.25;17.75;;;;;4.89;71.24;101442.53;5055254;28;45509;-61
2021/11/24 09:54:04;;;;;;;;;25.25;20.00;;;;;4.99;71.38;101448.16;5028634;28;45551;-61
2021/11/24 09:56:29;;;;;;;;;24.25;20.00;;;;;5.10;71.27;101442.41;5054814;28;45292;-61
2021/11/24 09:58:54;;;;;;;;;24.50;17.75;;;;;5.22;71.34;101440.91;5054985;28;45509;-61
2021/11/24 10:01:20;;;;;;;;;23.25;18.25;;;;;5.37;70.69;101436.66;5055459;28;45482;-61
2021/11/24 10:03:45;;;;;;;;;25.50;19.25;;;;;5.48;70.63;101436.97;5054777;28;45376;-61
2021/11/24 10:06:11;;;;;;;;;30.50;24.50;;;;;5.61;70.43;101438.91;5028009;28;48177;-61
2021/11/24 10:08:36;;;;;;;;;25.00;16.75;;;;;5.76;70.20;101435.50;5053735;28;65160;-61
2021/11/24 10:11:02;;;;;;;;;25.50;20.50;;;;;5.93;70.03;101437.19;5044842;28;67680;-61
2021/11/24 10:13:27;;;;;;;;;24.75;19.50;;;;;6.09;69.53;101434.63;5054600;28;45438;-61
2021/11/24 10:15:55;;;;;;;;;21.00;13.75;;;;;6.22;69.24;101434.75;5054639;28;46214;-61
2021/11/24 10:18:29;;;;;;;;;20.00;15.75;;;;;6.36;68.37;101433.16;5054754;28;45972;-61
2021/11/24 10:21:09;;;;;;;;;19.25;14.50;;;;;6.49;68.18;101428.94;5054951;28;45356;-61
2021/11/24 10:23:34;;;;;;;;;17.50;14.00;;;;;6.64;67.68;101431.56;5070410;28;45648;-61
2021/11/24 10:26:37;;;;;;;;;14.75;13.50;;;;;6.78;67.32;101407.28;5067652;28;45830;-61
2021/11/24 10:29:11;;;;;;;;;18.25;12.75;;;;;6.89;67.03;101409.25;4992915;28;45947;-61
2021/11/24 10:31:40;;;;;;;;;13.25;10.25;;;;;6.98;66.57;101406.94;5049152;28;45358;-61
2021/11/24 10:34:21;;;;;;;;;18.25;15.75;;;;;7.07;66.32;101400.34;5036862;28;45412;-61
2021/11/24 10:37:05;;;;;;;;;18.75;13.75;;;;;7.18;65.97;101401.44;5055462;28;46013;-61
2021/11/24 10:39:36;;;;;;;;;15.50;14.00;;;;;7.26;65.60;101392.22;5055716;28;45397;-62
2021/11/24 10:42:10;;;;;;;;;18.50;17.50;;;;;7.32;65.49;101385.78;5080292;27;45476;-62
2021/11/24 10:44:35;;;;;;;;;29.50;27.75;;;;;7.38;65.25;101376.72;5079207;27;45383;-61
2021/11/24 10:47:02;;;;;;;;;30.00;21.75;;;;;7.42;64.95;101372.97;5079786;27;46311;-61
2021/11/24 10:49:53;;;;;;;;;20.75;18.25;;;;;7.47;65.01;101370.91;5082833;27;45839;-61
2021/11/24 10:52:25;;;;;;;;;57.50;41.25;;;;;7.52;64.76;101368.84;5070127;27;45422;-62
2021/11/24 10:55:05;;;;;;;;;25.25;20.75;;;;;7.58;64.60;101368.47;5077695;27;45638;-61
2021/11/24 10:57:32;;;;;;;;;26.75;22.75;;;;;7.63;64.33;101369.97;5084665;27;46267;-61
2021/11/24 11:00:06;;;;;;;;;54.50;40.25;;;;;7.67;64.08;101358.38;5085887;27;45202;-62
2021/11/24 11:02:33;;;;;;;;;25.25;20.75;;;;;7.71;63.90;101352.84;5081066;27;45399;-62
2021/11/24 11:05:01;;;;;;;;;13.50;11.75;;;;;7.75;63.96;101347.41;5077987;27;45677;-61
2021/11/24 11:07:28;;;;;;;;;18.25;18.25;;;;;7.80;63.94;101353.19;5078013;27;45742;-62
2021/11/24 11:10:00;;;;;;;;;19.25;16.25;;;;;7.87;63.85;101344.88;5076511;27;45799;-62
2021/11/24 11:12:31;;;;;;;;;21.50;19.00;;;;;7.94;63.45;101342.69;5080349;27;45470;-62